createdAt,value
2023-03-15T00:01:17.098Z,81.88
2023-03-15T00:03:43.761Z,81.27
2023-03-15T00:06:10.627Z,81.16
2023-03-15T00:08:37.512Z,81.13
2023-03-15T00:11:04.144Z,79.94
2023-03-15T00:13:30.768Z,79.70
2023-03-15T00:15:59.388Z,79.46
2023-03-15T00:18:26.373Z,79.25
2023-03-15T00:20:53.084Z,78.82
2023-03-15T00:23:19.533Z,78.74
2023-03-15T00:25:46.786Z,78.17
2023-03-15T00:28:13.793Z,78.30
2023-03-15T00:30:40.297Z,77.75
2023-03-15T00:33:06.847Z,77.73
2023-03-15T00:35:34.051Z,77.60
2023-03-15T00:38:00.885Z,77.42
2023-03-15T00:40:27.542Z,77.32
2023-03-15T00:42:54.021Z,77.50
2023-03-15T00:45:21.353Z,77.26
2023-03-15T00:47:51.454Z,77.18
2023-03-15T00:50:18.053Z,76.43
2023-03-15T00:52:44.718Z,76.76
2023-03-15T00:55:15.445Z,76.95
2023-03-15T00:57:43.047Z,76.94
2023-03-15T01:00:11.278Z,76.63
2023-03-15T01:02:37.830Z,76.57
2023-03-15T01:05:06.202Z,76.48
2023-03-15T01:07:35.673Z,76.54
2023-03-15T01:10:03.263Z,76.43
2023-03-15T01:12:32.785Z,76.48
2023-03-15T01:14:59.628Z,76.46
2023-03-15T01:17:26.240Z,76.56
2023-03-15T01:19:53.220Z,76.53
2023-03-15T01:22:20.435Z,77.36
2023-03-15T01:24:46.881Z,77.55
2023-03-15T01:27:13.356Z,77.49
2023-03-15T01:29:39.843Z,77.28
2023-03-15T01:32:06.795Z,77.38
2023-03-15T01:34:33.736Z,77.11
2023-03-15T01:37:00.985Z,77.18
2023-03-15T01:39:27.478Z,77.31
2023-03-15T01:41:53.936Z,77.16
2023-03-15T01:44:20.723Z,77.15
2023-03-15T01:46:47.407Z,77.02
2023-03-15T01:49:29.649Z,76.83
2023-03-15T01:51:58.633Z,77.45
2023-03-15T01:54:31.215Z,77.49
2023-03-15T01:57:02.133Z,77.38
2023-03-15T01:59:40.725Z,77.20
2023-03-15T02:02:07.815Z,77.86
2023-03-15T02:04:36.885Z,77.65
2023-03-15T02:07:03.898Z,77.71
2023-03-15T02:09:44.551Z,77.65
2023-03-15T02:12:11.283Z,79.02
2023-03-15T02:14:38.488Z,81.59
2023-03-15T02:17:05.120Z,80.43
2023-03-15T02:19:48.598Z,78.05
2023-03-15T02:22:27.572Z,78.10
2023-03-15T02:24:58.845Z,77.72
2023-03-15T02:27:29.308Z,78.41
2023-03-15T02:29:56.013Z,78.00
2023-03-15T02:32:22.526Z,78.22
2023-03-15T02:34:49.089Z,78.54
2023-03-15T02:37:15.535Z,78.84
2023-03-15T02:39:41.992Z,79.33
2023-03-15T02:42:08.553Z,79.66
2023-03-15T02:44:39.497Z,79.91
2023-03-15T02:47:08.560Z,79.25
2023-03-15T02:49:37.685Z,79.52
2023-03-15T02:52:04.316Z,79.71
2023-03-15T02:54:34.307Z,79.73
2023-03-15T02:57:01.776Z,80.76
2023-03-15T02:59:28.221Z,80.66
2023-03-15T03:01:54.715Z,80.77
2023-03-15T03:04:21.193Z,80.74
2023-03-15T03:06:47.642Z,80.38
2023-03-15T03:09:14.086Z,80.88
2023-03-15T03:11:40.562Z,81.16
2023-03-15T03:14:07.029Z,81.62
2023-03-15T03:16:33.597Z,81.00
2023-03-15T03:19:00.546Z,81.07
2023-03-15T03:21:27.027Z,81.82
2023-03-15T03:23:54.800Z,81.98
2023-03-15T03:26:21.476Z,81.87
2023-03-15T03:28:49.689Z,82.21
2023-03-15T03:31:20.157Z,83.01
2023-03-15T03:33:46.946Z,83.40
2023-03-15T03:36:13.530Z,84.39
2023-03-15T03:38:40.836Z,85.12
2023-03-15T03:41:07.523Z,84.77
2023-03-15T03:43:33.985Z,85.14
2023-03-15T03:46:00.479Z,84.47
2023-03-15T03:48:26.976Z,83.89
2023-03-15T03:50:53.432Z,84.05
2023-03-15T03:53:19.876Z,84.75
2023-03-15T03:55:46.788Z,85.47
2023-03-15T03:58:13.271Z,85.35
2023-03-15T04:00:39.985Z,85.37
2023-03-15T04:03:06.427Z,85.04
2023-03-15T04:05:32.904Z,84.85
2023-03-15T04:07:59.354Z,84.64
2023-03-15T04:10:28.454Z,85.14
2023-03-15T04:12:55.497Z,84.23
2023-03-15T04:15:25.071Z,84.71
2023-03-15T04:17:58.405Z,84.69
2023-03-15T04:20:28.235Z,84.61
2023-03-15T04:22:54.750Z,84.12
2023-03-15T04:25:21.766Z,83.35
2023-03-15T04:27:58.858Z,83.17
2023-03-15T04:30:27.227Z,83.90
2023-03-15T04:33:00.380Z,84.20
2023-03-15T04:35:27.070Z,84.57
2023-03-15T04:37:53.680Z,85.02
2023-03-15T04:40:20.382Z,84.88
2023-03-15T04:42:46.830Z,85.16
2023-03-15T04:45:13.308Z,85.11
2023-03-15T04:47:39.756Z,85.45
2023-03-15T04:50:06.452Z,85.08
2023-03-15T04:52:32.914Z,85.10
2023-03-15T04:54:59.356Z,85.89
2023-03-15T04:57:25.818Z,85.94
2023-03-15T04:59:52.285Z,85.65
2023-03-15T05:02:18.932Z,85.65
2023-03-15T05:04:45.400Z,85.80
2023-03-15T05:07:11.973Z,85.55
2023-03-15T05:09:39.786Z,85.76
2023-03-15T05:12:07.151Z,86.33
2023-03-15T05:14:33.698Z,86.03
2023-03-15T05:17:02.099Z,86.44
2023-03-15T05:19:28.763Z,85.51
2023-03-15T05:21:55.268Z,85.67
2023-03-15T05:24:22.366Z,86.17
2023-03-15T05:26:48.856Z,86.88
2023-03-15T05:29:15.641Z,87.26
2023-03-15T05:31:42.155Z,87.87
2023-03-15T05:34:08.616Z,87.43
2023-03-15T05:36:35.042Z,87.81
2023-03-15T05:39:03.312Z,87.86
2023-03-15T05:41:29.822Z,88.53
2023-03-15T05:43:56.577Z,88.18
2023-03-15T05:46:23.055Z,88.50
2023-03-15T05:52:11.328Z,89.11
2023-03-15T05:54:37.879Z,88.53
2023-03-15T05:57:04.484Z,89.62
2023-03-15T05:59:31.068Z,89.48
2023-03-15T06:01:57.505Z,88.93
2023-03-15T06:04:24.696Z,88.91
2023-03-15T06:06:51.960Z,89.51
2023-03-15T06:09:18.457Z,89.22
2023-03-15T06:11:44.903Z,88.89
2023-03-15T06:14:11.342Z,89.52
2023-03-15T06:16:37.856Z,89.23
2023-03-15T06:19:04.387Z,88.74
2023-03-15T06:21:30.914Z,89.51
2023-03-15T06:23:57.396Z,89.68
2023-03-15T06:26:23.884Z,89.52
2023-03-15T06:28:50.674Z,89.07
2023-03-15T06:31:17.531Z,89.57
2023-03-15T06:33:44.064Z,89.39
2023-03-15T06:36:11.182Z,89.10
2023-03-15T06:38:37.725Z,89.60
2023-03-15T06:41:05.232Z,89.57
2023-03-15T06:43:31.921Z,88.93
2023-03-15T06:46:00.038Z,89.12
2023-03-15T06:48:27.511Z,89.75
2023-03-15T06:50:54.060Z,89.12
2023-03-15T06:53:20.842Z,89.23
2023-03-15T06:55:47.768Z,89.44
2023-03-15T06:58:14.623Z,88.81
2023-03-15T07:00:41.159Z,88.42
2023-03-15T07:03:07.643Z,88.12
2023-03-15T07:05:34.129Z,88.08
2023-03-15T07:08:00.627Z,88.89
2023-03-15T07:10:27.138Z,88.65
2023-03-15T07:12:53.800Z,88.48
2023-03-15T07:15:20.439Z,88.48
2023-03-15T07:17:47.026Z,88.19
2023-03-15T07:20:13.568Z,88.99
2023-03-15T07:22:40.157Z,89.49
2023-03-15T07:25:07.559Z,89.73
2023-03-15T07:31:36.813Z,89.89
2023-03-15T07:34:03.394Z,89.56
2023-03-15T07:36:29.909Z,89.19
2023-03-15T07:38:56.340Z,89.66
2023-03-15T07:41:22.832Z,89.97
2023-03-15T07:43:49.369Z,90.90
2023-03-15T07:46:15.873Z,90.12
2023-03-15T07:48:42.344Z,90.02
2023-03-15T07:51:08.825Z,89.79
2023-03-15T07:53:35.359Z,90.22
2023-03-15T07:56:02.038Z,89.63
2023-03-15T07:58:28.770Z,88.67
2023-03-15T08:00:58.211Z,87.46
2023-03-15T08:03:25.072Z,88.01
2023-03-15T08:05:51.658Z,87.09
2023-03-15T08:08:18.242Z,87.65
2023-03-15T08:10:45.097Z,87.43
2023-03-15T08:13:11.909Z,87.41
2023-03-15T08:15:38.360Z,86.71
2023-03-15T08:18:06.527Z,87.26
2023-03-15T08:20:35.765Z,87.11
2023-03-15T08:23:02.626Z,87.27
2023-03-15T08:25:29.310Z,87.15
2023-03-15T08:27:55.764Z,86.41
2023-03-15T08:30:22.788Z,87.13
2023-03-15T08:32:49.868Z,86.61
2023-03-15T08:35:17.282Z,87.56
2023-03-15T08:37:47.869Z,86.84
2023-03-15T08:40:16.116Z,87.34
2023-03-15T08:42:42.598Z,87.80
2023-03-15T08:45:09.395Z,87.85
2023-03-15T08:47:36.342Z,87.75
2023-03-15T08:50:05.457Z,87.22
2023-03-15T08:52:32.031Z,87.37
2023-03-15T08:54:58.512Z,87.76
2023-03-15T08:57:25.997Z,88.26
2023-03-15T08:59:52.864Z,86.78
2023-03-15T09:02:19.389Z,87.45
2023-03-15T09:04:45.979Z,87.23
2023-03-15T09:07:12.616Z,88.09
2023-03-15T09:09:39.155Z,88.69
2023-03-15T09:12:05.772Z,89.19
2023-03-15T09:14:32.215Z,89.54
2023-03-15T09:16:58.744Z,89.48
2023-03-15T09:19:25.253Z,88.41
2023-03-15T09:21:51.754Z,89.00
2023-03-15T09:24:18.407Z,88.45
2023-03-15T09:26:44.869Z,89.23
2023-03-15T09:29:11.344Z,89.01
2023-03-15T09:31:37.887Z,89.35
2023-03-15T09:34:05.751Z,88.31
2023-03-15T09:36:32.925Z,87.43
2023-03-15T09:38:59.753Z,86.54
2023-03-15T09:41:46.775Z,86.46
2023-03-15T09:44:28.423Z,86.29
2023-03-15T09:47:04.089Z,87.41
2023-03-15T09:49:37.453Z,87.18
2023-03-15T09:52:09.689Z,86.52
2023-03-15T09:54:46.429Z,86.56
2023-03-15T09:57:19.633Z,84.75
2023-03-15T09:59:49.334Z,85.43
2023-03-15T10:02:19.613Z,83.82
2023-03-15T10:04:47.387Z,84.62
2023-03-15T10:07:14.672Z,84.42
2023-03-15T10:09:41.108Z,83.15
2023-03-15T10:12:18.866Z,82.09
2023-03-15T10:15:03.889Z,82.62
2023-03-15T10:17:35.326Z,81.21
2023-03-15T10:20:23.834Z,79.97
2023-03-15T10:22:55.388Z,80.35
2023-03-15T10:25:26.197Z,79.75
2023-03-15T10:27:55.937Z,80.32
2023-03-15T10:30:26.779Z,80.72
2023-03-15T10:32:59.059Z,79.52
2023-03-15T10:35:26.063Z,80.87
2023-03-15T10:37:52.484Z,81.19
2023-03-15T10:40:37.442Z,80.94
2023-03-15T10:43:12.066Z,81.33
2023-03-15T10:45:39.610Z,80.79
2023-03-15T10:48:07.806Z,80.85
2023-03-15T10:50:37.752Z,79.55
2023-03-15T10:53:08.937Z,79.82
2023-03-15T10:55:58.382Z,80.52
2023-03-15T10:58:31.419Z,78.75
2023-03-15T11:01:03.854Z,80.36
2023-03-15T11:03:31.284Z,79.69
2023-03-15T11:05:58.722Z,78.00
2023-03-15T11:08:35.810Z,76.91
2023-03-15T11:11:02.527Z,77.68
2023-03-15T11:13:31.008Z,78.19
2023-03-15T11:16:06.482Z,78.05
2023-03-15T11:18:37.649Z,78.87
2023-03-15T11:21:06.988Z,79.69
2023-03-15T11:23:38.061Z,79.92
2023-03-15T11:26:05.192Z,78.83
2023-03-15T11:28:33.088Z,78.93
2023-03-15T11:31:04.874Z,78.91
2023-03-15T11:33:48.201Z,78.20
2023-03-15T11:36:17.699Z,78.75
2023-03-15T11:38:44.963Z,79.47
2023-03-15T11:41:17.156Z,78.13
2023-03-15T11:43:55.097Z,76.80
2023-03-15T11:46:27.434Z,76.97
2023-03-15T11:49:12.846Z,76.57
2023-03-15T11:51:39.704Z,76.35
2023-03-15T11:54:09.865Z,76.65
2023-03-15T11:56:47.194Z,74.98
2023-03-15T11:59:13.612Z,74.86
2023-03-15T12:01:45.840Z,75.42
2023-03-15T12:04:24.399Z,73.92
2023-03-15T12:06:54.326Z,73.39
2023-03-15T12:09:39.973Z,72.87
2023-03-15T12:12:29.469Z,74.04
2023-03-15T12:15:03.907Z,74.54
2023-03-15T12:17:38.497Z,72.86
2023-03-15T12:20:12.389Z,73.48
2023-03-15T12:23:02.185Z,72.60
2023-03-15T12:25:39.487Z,73.22
2023-03-15T12:28:20.163Z,72.90
2023-03-15T12:30:52.951Z,72.18
2023-03-15T12:33:20.926Z,72.21
2023-03-15T12:35:48.901Z,71.94
2023-03-15T12:38:17.347Z,71.67
2023-03-15T12:40:50.088Z,72.53
2023-03-15T12:43:34.774Z,72.08
2023-03-15T12:46:01.304Z,72.85
2023-03-15T12:48:28.483Z,73.32
2023-03-15T12:50:56.489Z,73.27
2023-03-15T12:53:27.415Z,73.28
2023-03-15T12:56:06.229Z,71.93
2023-03-15T12:58:39.144Z,72.19
2023-03-15T13:01:07.510Z,72.47
2023-03-15T13:03:35.271Z,71.64
2023-03-15T13:06:08.737Z,70.68
2023-03-15T13:08:43.848Z,71.06
2023-03-15T13:11:11.844Z,71.38
2023-03-15T13:13:53.728Z,71.34
2023-03-15T13:16:29.284Z,70.81
2023-03-15T13:19:18.913Z,70.48
2023-03-15T13:22:04.027Z,71.10
2023-03-15T13:24:44.777Z,70.85
2023-03-15T13:27:34.676Z,69.54
2023-03-15T13:30:19.743Z,70.47
2023-03-15T13:32:46.329Z,70.41
2023-03-15T13:35:13.819Z,70.83
2023-03-15T13:37:45.285Z,70.12
2023-03-15T13:40:13.754Z,69.63
2023-03-15T13:42:41.165Z,69.82
2023-03-15T13:45:15.005Z,69.88
2023-03-15T13:47:42.710Z,68.59
2023-03-15T13:50:13.339Z,68.36
2023-03-15T13:52:41.071Z,66.85
2023-03-15T13:55:08.004Z,66.34
2023-03-15T13:57:34.492Z,68.02
2023-03-15T14:00:05.012Z,68.15
2023-03-15T14:02:37.602Z,68.26
2023-03-15T14:05:09.398Z,68.21
2023-03-15T14:07:39.913Z,67.96
2023-03-15T14:10:18.873Z,69.05
2023-03-15T14:12:45.828Z,69.16
2023-03-15T14:15:17.749Z,69.41
2023-03-15T14:18:02.892Z,69.29
2023-03-15T14:20:38.697Z,68.97
2023-03-15T14:23:09.656Z,68.25
2023-03-15T14:25:37.019Z,67.70
2023-03-15T14:28:04.697Z,68.20
2023-03-15T14:30:34.740Z,68.54
2023-03-15T14:33:03.740Z,68.30
2023-03-15T14:35:30.159Z,68.63
2023-03-15T14:38:15.011Z,67.85
2023-03-15T14:40:41.607Z,68.97
2023-03-15T14:43:09.525Z,68.41
2023-03-15T14:45:37.600Z,68.53
2023-03-15T14:48:08.470Z,68.19
2023-03-15T14:50:36.785Z,68.15
2023-03-15T14:53:03.356Z,68.68
2023-03-15T14:55:34.938Z,68.05
2023-03-15T14:58:02.354Z,67.38
2023-03-15T15:00:28.874Z,67.12
2023-03-15T15:02:56.388Z,66.90
2023-03-15T15:05:22.934Z,66.62
2023-03-15T15:07:54.675Z,67.47
2023-03-15T15:10:25.625Z,67.67
2023-03-15T15:13:05.245Z,67.41
2023-03-15T15:15:40.781Z,67.54
2023-03-15T15:18:18.263Z,67.87
2023-03-15T15:20:45.235Z,67.06
2023-03-15T15:23:19.631Z,65.89
2023-03-15T15:25:48.066Z,65.61
2023-03-15T15:28:27.372Z,65.88
2023-03-15T15:31:00.655Z,65.48
2023-03-15T15:33:27.084Z,65.28
2023-03-15T15:35:54.819Z,64.89
2023-03-15T15:38:23.532Z,65.35
2023-03-15T15:40:49.962Z,65.03
2023-03-15T15:43:16.827Z,65.23
2023-03-15T15:45:43.304Z,65.17
2023-03-15T15:48:09.781Z,64.86
2023-03-15T15:50:36.688Z,64.88
2023-03-15T15:53:04.650Z,65.23
2023-03-15T15:55:33.721Z,65.26
2023-03-15T15:58:01.253Z,64.65
2023-03-15T16:00:28.325Z,65.00
2023-03-15T16:02:56.599Z,65.62
2023-03-15T16:05:25.249Z,65.29
2023-03-15T16:07:52.248Z,65.65
2023-03-15T16:10:18.940Z,66.04
2023-03-15T16:12:46.006Z,65.68
2023-03-15T16:15:14.537Z,66.21
2023-03-15T16:17:41.216Z,66.49
2023-03-15T16:20:09.206Z,65.69
2023-03-15T16:22:37.394Z,66.91
2023-03-15T16:25:08.162Z,66.39
2023-03-15T16:27:34.632Z,66.74
2023-03-15T16:30:02.812Z,66.00
2023-03-15T16:32:43.286Z,66.81
2023-03-15T16:35:15.705Z,66.61
2023-03-15T16:37:42.972Z,66.79
2023-03-15T16:40:15.068Z,66.73
2023-03-15T16:42:41.519Z,66.75
2023-03-15T16:45:12.583Z,66.89
2023-03-15T16:47:39.021Z,65.94
2023-03-15T16:50:05.667Z,64.92
2023-03-15T16:52:32.829Z,65.88
2023-03-15T16:55:01.131Z,65.74
2023-03-15T16:57:27.719Z,66.39
2023-03-15T16:59:54.182Z,65.58
2023-03-15T17:02:22.177Z,66.11
2023-03-15T17:04:49.247Z,66.31
2023-03-15T17:07:17.163Z,65.11
2023-03-15T17:09:45.491Z,64.95
2023-03-15T17:12:23.875Z,65.56
2023-03-15T17:14:50.765Z,65.08
2023-03-15T17:17:17.714Z,65.00
2023-03-15T17:19:44.498Z,65.34
2023-03-15T17:22:11.953Z,65.00
2023-03-15T17:24:38.497Z,65.61
2023-03-15T17:27:05.284Z,64.94
2023-03-15T17:29:31.804Z,64.55
2023-03-15T17:31:58.880Z,65.41
2023-03-15T17:34:26.755Z,65.14
2023-03-15T17:36:53.949Z,64.81
2023-03-15T17:39:20.888Z,65.36
2023-03-15T17:41:47.910Z,65.49
2023-03-15T17:44:14.397Z,65.15
2023-03-15T17:46:41.326Z,66.24
2023-03-15T17:49:09.349Z,65.55
2023-03-15T17:51:36.591Z,65.88
2023-03-15T17:54:12.219Z,66.04
2023-03-15T17:56:38.999Z,65.87
2023-03-15T17:59:05.647Z,65.67
2023-03-15T18:01:32.385Z,65.61
2023-03-15T18:03:59.122Z,66.26
2023-03-15T18:06:25.650Z,65.80
2023-03-15T18:08:52.271Z,66.41
2023-03-15T18:11:18.744Z,66.25
2023-03-15T18:13:45.250Z,66.16
2023-03-15T18:16:12.278Z,66.45
2023-03-15T18:18:38.852Z,66.60
2023-03-15T18:21:05.472Z,66.22
2023-03-15T18:23:32.011Z,66.47
2023-03-15T18:25:58.606Z,66.49
2023-03-15T18:28:25.141Z,66.37
2023-03-15T18:30:51.636Z,66.83
2023-03-15T18:33:19.008Z,66.67
2023-03-15T18:35:45.576Z,67.15
2023-03-15T18:38:12.118Z,66.90
2023-03-15T18:40:38.562Z,66.64
2023-03-15T18:43:05.619Z,66.99
2023-03-15T18:45:33.364Z,67.71
2023-03-15T18:48:00.028Z,67.62
2023-03-15T18:50:27.237Z,67.70
2023-03-15T18:52:53.692Z,66.99
2023-03-15T18:55:22.262Z,66.63
2023-03-15T18:57:49.812Z,67.23
2023-03-15T19:00:23.763Z,66.53
2023-03-15T19:02:51.029Z,66.02
2023-03-15T19:05:18.063Z,66.66
2023-03-15T19:07:47.310Z,66.43
2023-03-15T19:10:15.319Z,66.58
2023-03-15T19:12:42.373Z,66.91
2023-03-15T19:15:15.056Z,66.39
2023-03-15T19:17:42.251Z,67.10
2023-03-15T19:20:12.242Z,67.02
2023-03-15T19:22:39.036Z,66.99
2023-03-15T19:25:06.363Z,66.85
2023-03-15T19:27:32.848Z,66.30
2023-03-15T19:29:59.344Z,66.75
2023-03-15T19:32:25.808Z,67.04
2023-03-15T19:34:52.308Z,67.44
2023-03-15T19:37:18.753Z,67.02
2023-03-15T19:39:45.263Z,67.13
2023-03-15T19:42:11.790Z,67.55
2023-03-15T19:44:38.290Z,67.49
2023-03-15T19:47:04.925Z,66.92
2023-03-15T19:49:31.421Z,67.61
2023-03-15T19:51:57.897Z,67.65
2023-03-15T19:54:24.656Z,67.52
2023-03-15T19:56:51.288Z,68.04
2023-03-15T19:59:17.990Z,67.58
2023-03-15T20:01:44.530Z,67.99
2023-03-15T20:04:11.174Z,67.53
2023-03-15T20:06:37.816Z,67.71
2023-03-15T20:09:05.905Z,67.38
2023-03-15T20:11:32.425Z,67.76
2023-03-15T20:13:59.096Z,66.85
2023-03-15T20:16:25.859Z,66.50
2023-03-15T20:18:53.660Z,66.71
2023-03-15T20:21:20.205Z,67.05
2023-03-15T20:23:47.954Z,66.68
2023-03-15T20:26:16.789Z,67.00
2023-03-15T20:28:44.333Z,66.58
2023-03-15T20:31:12.330Z,66.33
2023-03-15T20:33:39.205Z,66.42
2023-03-15T20:36:06.581Z,67.00
2023-03-15T20:38:37.314Z,67.16
2023-03-15T20:41:04.701Z,66.71
2023-03-15T20:43:32.934Z,66.92
2023-03-15T20:46:00.544Z,66.77
2023-03-15T20:48:27.447Z,66.58
2023-03-15T20:50:53.879Z,66.57
2023-03-15T20:53:20.492Z,66.79
2023-03-15T20:55:47.209Z,66.73
2023-03-15T20:58:13.707Z,67.46
2023-03-15T21:00:41.138Z,66.89
2023-03-15T21:03:07.908Z,67.11
2023-03-15T21:05:35.660Z,67.12
2023-03-15T21:08:02.101Z,67.16
2023-03-15T21:10:28.625Z,67.26
2023-03-15T21:12:55.103Z,67.34
2023-03-15T21:15:21.591Z,67.50
2023-03-15T21:17:50.800Z,67.51
2023-03-15T21:20:17.986Z,67.73
2023-03-15T21:22:44.484Z,67.73
2023-03-15T21:25:11.416Z,68.00
2023-03-15T21:27:37.843Z,67.52
2023-03-15T21:30:04.550Z,67.90
2023-03-15T21:32:31.091Z,68.01
2023-03-15T21:34:57.841Z,67.62
2023-03-15T21:37:24.291Z,67.95
2023-03-15T21:39:50.731Z,67.93
2023-03-15T21:42:17.179Z,67.99
2023-03-15T21:44:43.669Z,68.10
2023-03-15T21:47:10.343Z,68.33
2023-03-15T21:49:36.783Z,68.02
2023-03-15T21:52:03.347Z,67.87
2023-03-15T21:54:29.897Z,68.13
2023-03-15T21:56:56.510Z,67.90
2023-03-15T21:59:28.241Z,67.89
2023-03-15T22:01:55.511Z,68.30
2023-03-15T22:04:22.061Z,68.47
2023-03-15T22:06:48.603Z,68.44
2023-03-15T22:09:15.040Z,68.52
2023-03-15T22:11:41.478Z,68.42
2023-03-15T22:14:07.925Z,68.72
2023-03-15T22:16:34.506Z,68.71
2023-03-15T22:19:03.123Z,68.56
2023-03-15T22:21:32.598Z,68.08
2023-03-15T22:23:59.045Z,67.88
2023-03-15T22:26:25.771Z,68.54
2023-03-15T22:28:52.275Z,68.60
2023-03-15T22:31:19.092Z,67.91
2023-03-15T22:33:45.572Z,68.62
2023-03-15T22:36:12.040Z,69.30
2023-03-15T22:38:38.500Z,69.38
2023-03-15T22:41:06.748Z,68.67
2023-03-15T22:43:33.264Z,69.13
2023-03-15T22:45:59.852Z,69.25
2023-03-15T22:48:26.345Z,69.22
2023-03-15T22:50:56.714Z,69.05
2023-03-15T22:53:23.191Z,68.91
2023-03-15T22:55:49.648Z,69.24
2023-03-15T22:58:16.115Z,68.75
2023-03-15T23:00:42.583Z,69.25
2023-03-15T23:03:09.039Z,69.09
2023-03-15T23:05:35.757Z,69.05
2023-03-15T23:08:03.384Z,69.31
2023-03-15T23:10:29.863Z,69.79
2023-03-15T23:12:56.356Z,69.17
2023-03-15T23:15:23.125Z,69.45
2023-03-15T23:17:49.788Z,69.33
2023-03-15T23:20:17.487Z,68.83
2023-03-15T23:22:44.800Z,69.05
2023-03-15T23:25:11.842Z,68.55
2023-03-15T23:27:38.385Z,69.30
2023-03-15T23:30:05.778Z,69.55
2023-03-15T23:32:32.338Z,69.39
2023-03-15T23:34:58.815Z,69.86
2023-03-15T23:37:25.315Z,69.43
2023-03-15T23:39:53.425Z,69.32
2023-03-15T23:42:20.064Z,68.76
2023-03-15T23:44:46.505Z,69.53
2023-03-15T23:47:12.945Z,69.55
2023-03-15T23:49:39.413Z,69.16
2023-03-15T23:52:06.233Z,69.18
2023-03-15T23:54:39.415Z,69.29
2023-03-15T23:57:06.673Z,69.45
2023-03-15T23:59:34.843Z,68.83
